Terminal Aerodrome Forecast
Issued by NWS

Home | Current Version | Previous Version | Text Only | Print | Product List | Glossary On
Versions: 1 2 3 4 5 6 7 8 9 10 11 12 13 14 15 16 17 18 19 20 21 22 23 24 25 26 27 28 29 30 31 32 33 34 35 36 37 38 39 40 41 42
000
FTUS45 KGJT 211130
TAFMTJ
TAF
KMTJ 211130Z 2112/2212 12003KT P6SM SCT040 OVC070
     FM211600 VRB03KT P6SM VCSH SCT040 OVC060
     FM212300 26007G15KT P6SM VCSH OVC050
     FM220500 30014G20KT P6SM VCSH OVC050=

USA.gov is the U.S. government's official web portal to all federal, state and local government web resources and services.